sensor_id;sensor_type;location;lat;lon;timestamp;temperature;humidity
21121;DHT22;12519;43.318;21.898;2023-04-24T00:00:19;17.0;70.0
21121;DHT22;12519;43.318;21.898;2023-04-24T00:04:56;16.9;70.0
21121;DHT22;12519;43.318;21.898;2023-04-24T00:09:33;16.9;70.0
21121;DHT22;12519;43.318;21.898;2023-04-24T00:14:10;16.8;70.0
21121;DHT22;12519;43.318;21.898;2023-04-24T00:18:46;16.8;70.0
21121;DHT22;12519;43.318;21.898;2023-04-24T00:23:23;16.8;70.0
21121;DHT22;12519;43.318;21.898;2023-04-24T00:28:01;16.8;70.0
21121;DHT22;12519;43.318;21.898;2023-04-24T00:32:37;16.8;71.0
21121;DHT22;12519;43.318;21.898;2023-04-24T00:37:15;16.8;71.0
21121;DHT22;12519;43.318;21.898;2023-04-24T00:41:53;16.8;71.0
21121;DHT22;12519;43.318;21.898;2023-04-24T00:46:32;16.7;71.0
21121;DHT22;12519;43.318;21.898;2023-04-24T00:51:10;16.7;71.0
21121;DHT22;12519;43.318;21.898;2023-04-24T00:55:48;16.8;71.0
21121;DHT22;12519;43.318;21.898;2023-04-24T01:00:27;16.8;71.0
21121;DHT22;12519;43.318;21.898;2023-04-24T01:05:08;16.8;71.0
21121;DHT22;12519;43.318;21.898;2023-04-24T01:09:47;16.8;71.0
21121;DHT22;12519;43.318;21.898;2023-04-24T01:14:25;16.9;71.0
21121;DHT22;12519;43.318;21.898;2023-04-24T01:19:02;16.9;71.0
21121;DHT22;12519;43.318;21.898;2023-04-24T01:23:39;17.0;70.0
21121;DHT22;12519;43.318;21.898;2023-04-24T01:28:17;17.0;70.0
21121;DHT22;12519;43.318;21.898;2023-04-24T01:32:56;17.0;70.0
21121;DHT22;12519;43.318;21.898;2023-04-24T01:37:35;17.0;70.0
21121;DHT22;12519;43.318;21.898;2023-04-24T01:42:13;16.9;71.0
21121;DHT22;12519;43.318;21.898;2023-04-24T01:46:51;16.9;71.0
21121;DHT22;12519;43.318;21.898;2023-04-24T01:51:29;16.9;71.0
21121;DHT22;12519;43.318;21.898;2023-04-24T01:56:06;16.8;71.0
21121;DHT22;12519;43.318;21.898;2023-04-24T02:00:44;16.8;71.0
21121;DHT22;12519;43.318;21.898;2023-04-24T02:05:20;16.8;71.0
21121;DHT22;12519;43.318;21.898;2023-04-24T02:09:57;16.8;71.0
21121;DHT22;12519;43.318;21.898;2023-04-24T02:14:34;16.8;71.0
21121;DHT22;12519;43.318;21.898;2023-04-24T02:19:11;16.8;71.0
21121;DHT22;12519;43.318;21.898;2023-04-24T02:23:47;16.8;71.0
21121;DHT22;12519;43.318;21.898;2023-04-24T02:28:24;16.8;71.0
21121;DHT22;12519;43.318;21.898;2023-04-24T02:33:00;16.8;71.0
21121;DHT22;12519;43.318;21.898;2023-04-24T02:37:36;16.8;71.0
21121;DHT22;12519;43.318;21.898;2023-04-24T02:42:13;16.7;71.0
21121;DHT22;12519;43.318;21.898;2023-04-24T02:46:49;16.7;71.0
21121;DHT22;12519;43.318;21.898;2023-04-24T02:51:26;16.7;71.0
21121;DHT22;12519;43.318;21.898;2023-04-24T02:56:02;16.6;71.0
21121;DHT22;12519;43.318;21.898;2023-04-24T03:00:39;16.6;71.0
21121;DHT22;12519;43.318;21.898;2023-04-24T03:05:16;16.6;71.0
21121;DHT22;12519;43.318;21.898;2023-04-24T03:09:53;16.6;71.0
21121;DHT22;12519;43.318;21.898;2023-04-24T03:14:30;16.6;71.0
21121;DHT22;12519;43.318;21.898;2023-04-24T03:19:08;16.6;71.0
21121;DHT22;12519;43.318;21.898;2023-04-24T03:23:45;16.6;71.0
21121;DHT22;12519;43.318;21.898;2023-04-24T03:28:22;16.6;71.0
21121;DHT22;12519;43.318;21.898;2023-04-24T03:33:00;16.5;71.0
21121;DHT22;12519;43.318;21.898;2023-04-24T03:37:37;16.5;71.0
21121;DHT22;12519;43.318;21.898;2023-04-24T03:42:14;16.5;71.0
21121;DHT22;12519;43.318;21.898;2023-04-24T03:46:51;16.4;71.0
21121;DHT22;12519;43.318;21.898;2023-04-24T03:51:28;16.4;71.0
21121;DHT22;12519;43.318;21.898;2023-04-24T03:56:05;16.5;72.0
21121;DHT22;12519;43.318;21.898;2023-04-24T04:00:41;16.5;72.0
21121;DHT22;12519;43.318;21.898;2023-04-24T04:05:18;16.7;73.0
21121;DHT22;12519;43.318;21.898;2023-04-24T04:09:54;16.7;73.0
21121;DHT22;12519;43.318;21.898;2023-04-24T04:14:31;17.2;73.0
21121;DHT22;12519;43.318;21.898;2023-04-24T04:19:08;17.2;73.0
21121;DHT22;12519;43.318;21.898;2023-04-24T04:23:44;17.7;73.0
21121;DHT22;12519;43.318;21.898;2023-04-24T04:28:21;17.7;73.0
21121;DHT22;12519;43.318;21.898;2023-04-24T04:32:57;17.2;73.0
21121;DHT22;12519;43.318;21.898;2023-04-24T04:37:35;17.2;73.0
21121;DHT22;12519;43.318;21.898;2023-04-24T04:42:12;17.2;73.0
21121;DHT22;12519;43.318;21.898;2023-04-24T04:46:49;16.8;72.0
21121;DHT22;12519;43.318;21.898;2023-04-24T04:51:25;16.8;72.0
21121;DHT22;12519;43.318;21.898;2023-04-24T04:56:03;16.7;73.0
21121;DHT22;12519;43.318;21.898;2023-04-24T05:00:40;16.7;73.0
21121;DHT22;12519;43.318;21.898;2023-04-24T05:05:16;16.6;73.0
21121;DHT22;12519;43.318;21.898;2023-04-24T05:09:54;16.6;73.0
21121;DHT22;12519;43.318;21.898;2023-04-24T05:14:30;16.8;74.0
21121;DHT22;12519;43.318;21.898;2023-04-24T05:19:06;16.8;74.0
21121;DHT22;12519;43.318;21.898;2023-04-24T05:23:42;17.1;75.0
21121;DHT22;12519;43.318;21.898;2023-04-24T05:28:19;17.1;75.0
21121;DHT22;12519;43.318;21.898;2023-04-24T05:32:55;17.5;74.0
21121;DHT22;12519;43.318;21.898;2023-04-24T05:37:32;17.5;74.0
21121;DHT22;12519;43.318;21.898;2023-04-24T05:42:08;17.5;74.0
21121;DHT22;12519;43.318;21.898;2023-04-24T05:46:45;17.8;73.0
21121;DHT22;12519;43.318;21.898;2023-04-24T05:51:22;17.8;73.0
21121;DHT22;12519;43.318;21.898;2023-04-24T05:56:00;17.8;73.0
21121;DHT22;12519;43.318;21.898;2023-04-24T06:00:38;17.8;73.0
21121;DHT22;12519;43.318;21.898;2023-04-24T06:05:15;17.9;72.0
21121;DHT22;12519;43.318;21.898;2023-04-24T06:09:52;17.9;72.0
21121;DHT22;12519;43.318;21.898;2023-04-24T06:14:30;17.7;73.0
21121;DHT22;12519;43.318;21.898;2023-04-24T06:19:07;17.7;73.0
21121;DHT22;12519;43.318;21.898;2023-04-24T06:23:44;17.5;73.0
21121;DHT22;12519;43.318;21.898;2023-04-24T06:28:21;17.5;73.0
21121;DHT22;12519;43.318;21.898;2023-04-24T06:32:57;18.3;73.0
21121;DHT22;12519;43.318;21.898;2023-04-24T06:37:34;18.3;73.0
21121;DHT22;12519;43.318;21.898;2023-04-24T06:42:10;18.3;73.0
21121;DHT22;12519;43.318;21.898;2023-04-24T06:46:47;19.1;73.0
21121;DHT22;12519;43.318;21.898;2023-04-24T06:51:25;19.1;73.0
21121;DHT22;12519;43.318;21.898;2023-04-24T06:56:03;19.4;71.0
21121;DHT22;12519;43.318;21.898;2023-04-24T07:00:40;19.4;71.0
21121;DHT22;12519;43.318;21.898;2023-04-24T07:05:17;19.6;69.0
21121;DHT22;12519;43.318;21.898;2023-04-24T07:09:53;19.6;69.0
21121;DHT22;12519;43.318;21.898;2023-04-24T07:14:30;19.2;70.0
21121;DHT22;12519;43.318;21.898;2023-04-24T07:19:06;19.2;70.0
21121;DHT22;12519;43.318;21.898;2023-04-24T07:23:43;18.9;70.0
21121;DHT22;12519;43.318;21.898;2023-04-24T07:28:19;18.9;70.0
21121;DHT22;12519;43.318;21.898;2023-04-24T07:32:56;19.3;68.0
21121;DHT22;12519;43.318;21.898;2023-04-24T07:37:33;19.3;68.0
21121;DHT22;12519;43.318;21.898;2023-04-24T07:42:09;19.3;68.0
21121;DHT22;12519;43.318;21.898;2023-04-24T07:46:46;19.7;66.0
21121;DHT22;12519;43.318;21.898;2023-04-24T07:51:23;19.7;66.0
21121;DHT22;12519;43.318;21.898;2023-04-24T07:55:59;20.0;65.0
21121;DHT22;12519;43.318;21.898;2023-04-24T08:00:35;20.0;65.0
21121;DHT22;12519;43.318;21.898;2023-04-24T08:05:12;20.4;64.0
21121;DHT22;12519;43.318;21.898;2023-04-24T08:09:49;20.4;64.0
21121;DHT22;12519;43.318;21.898;2023-04-24T08:14:25;21.0;64.0
21121;DHT22;12519;43.318;21.898;2023-04-24T08:19:02;21.0;64.0
21121;DHT22;12519;43.318;21.898;2023-04-24T08:23:40;21.5;64.0
21121;DHT22;12519;43.318;21.898;2023-04-24T08:28:18;21.5;64.0
21121;DHT22;12519;43.318;21.898;2023-04-24T08:32:55;21.5;64.0
21121;DHT22;12519;43.318;21.898;2023-04-24T08:37:32;21.6;63.0
21121;DHT22;12519;43.318;21.898;2023-04-24T08:42:11;21.6;63.0
21121;DHT22;12519;43.318;21.898;2023-04-24T08:46:54;21.8;63.0
21121;DHT22;12519;43.318;21.898;2023-04-24T08:51:33;21.8;63.0
21121;DHT22;12519;43.318;21.898;2023-04-24T08:56:14;21.8;63.0
21121;DHT22;12519;43.318;21.898;2023-04-24T09:00:55;21.8;63.0
21121;DHT22;12519;43.318;21.898;2023-04-24T09:14:56;22.4;61.0
21121;DHT22;12519;43.318;21.898;2023-04-24T09:19:33;22.4;61.0
21121;DHT22;12519;43.318;21.898;2023-04-24T09:24:22;22.4;61.0
21121;DHT22;12519;43.318;21.898;2023-04-24T09:29:01;22.4;61.0
21121;DHT22;12519;43.318;21.898;2023-04-24T09:33:38;22.6;61.0
21121;DHT22;12519;43.318;21.898;2023-04-24T09:38:15;22.6;61.0
21121;DHT22;12519;43.318;21.898;2023-04-24T09:42:56;22.6;61.0
21121;DHT22;12519;43.318;21.898;2023-04-24T09:47:38;22.8;60.0
21121;DHT22;12519;43.318;21.898;2023-04-24T09:52:16;22.8;60.0
21121;DHT22;12519;43.318;21.898;2023-04-24T09:56:55;22.8;60.0
21121;DHT22;12519;43.318;21.898;2023-04-24T10:01:34;22.8;60.0
21121;DHT22;12519;43.318;21.898;2023-04-24T10:06:14;22.7;60.0
21121;DHT22;12519;43.318;21.898;2023-04-24T10:10:51;22.7;60.0
21121;DHT22;12519;43.318;21.898;2023-04-24T10:15:29;22.9;60.0
21121;DHT22;12519;43.318;21.898;2023-04-24T10:20:10;22.9;60.0
21121;DHT22;12519;43.318;21.898;2023-04-24T10:24:52;23.1;60.0
21121;DHT22;12519;43.318;21.898;2023-04-24T10:29:32;23.1;60.0
21121;DHT22;12519;43.318;21.898;2023-04-24T10:34:12;23.0;60.0
21121;DHT22;12519;43.318;21.898;2023-04-24T10:38:50;23.0;60.0
21121;DHT22;12519;43.318;21.898;2023-04-24T10:43:28;23.0;60.0
21121;DHT22;12519;43.318;21.898;2023-04-24T10:48:08;23.0;60.0
21121;DHT22;12519;43.318;21.898;2023-04-24T10:52:47;23.0;60.0
21121;DHT22;12519;43.318;21.898;2023-04-24T10:57:29;23.2;60.0
21121;DHT22;12519;43.318;21.898;2023-04-24T11:02:08;23.2;60.0
21121;DHT22;12519;43.318;21.898;2023-04-24T11:06:45;23.4;59.0
21121;DHT22;12519;43.318;21.898;2023-04-24T11:11:30;23.4;59.0
21121;DHT22;12519;43.318;21.898;2023-04-24T11:16:29;23.4;59.0
21121;DHT22;12519;43.318;21.898;2023-04-24T11:21:13;23.4;59.0
21121;DHT22;12519;43.318;21.898;2023-04-24T11:26:17;23.5;58.0
21121;DHT22;12519;43.318;21.898;2023-04-24T11:30:58;23.5;58.0
21121;DHT22;12519;43.318;21.898;2023-04-24T11:36:12;23.4;59.0
21121;DHT22;12519;43.318;21.898;2023-04-24T11:40:51;23.4;59.0
21121;DHT22;12519;43.318;21.898;2023-04-24T11:45:32;23.2;60.0
21121;DHT22;12519;43.318;21.898;2023-04-24T11:50:17;23.2;60.0
21121;DHT22;12519;43.318;21.898;2023-04-24T11:54:56;23.2;60.0
21121;DHT22;12519;43.318;21.898;2023-04-24T11:59:37;23.2;60.0
21121;DHT22;12519;43.318;21.898;2023-04-24T12:04:18;23.2;61.0
21121;DHT22;12519;43.318;21.898;2023-04-24T12:08:54;23.2;61.0
21121;DHT22;12519;43.318;21.898;2023-04-24T12:13:31;23.1;62.0
21121;DHT22;12519;43.318;21.898;2023-04-24T12:18:13;23.1;62.0
21121;DHT22;12519;43.318;21.898;2023-04-24T12:22:57;23.1;62.0
21121;DHT22;12519;43.318;21.898;2023-04-24T12:27:35;23.0;62.0
21121;DHT22;12519;43.318;21.898;2023-04-24T12:32:17;23.0;62.0
21121;DHT22;12519;43.318;21.898;2023-04-24T12:36:53;23.0;62.0
21121;DHT22;12519;43.318;21.898;2023-04-24T12:41:31;23.0;62.0
21121;DHT22;12519;43.318;21.898;2023-04-24T12:46:07;23.0;63.0
21121;DHT22;12519;43.318;21.898;2023-04-24T12:50:44;23.0;63.0
21121;DHT22;12519;43.318;21.898;2023-04-24T12:55:21;22.8;64.0
21121;DHT22;12519;43.318;21.898;2023-04-24T12:59:59;22.8;64.0
21121;DHT22;12519;43.318;21.898;2023-04-24T13:04:36;22.6;66.0
21121;DHT22;12519;43.318;21.898;2023-04-24T13:09:13;22.6;66.0
21121;DHT22;12519;43.318;21.898;2023-04-24T13:13:50;22.1;67.0
21121;DHT22;12519;43.318;21.898;2023-04-24T13:18:26;22.1;67.0
21121;DHT22;12519;43.318;21.898;2023-04-24T13:23:02;22.1;67.0
21121;DHT22;12519;43.318;21.898;2023-04-24T13:27:39;21.6;69.0
21121;DHT22;12519;43.318;21.898;2023-04-24T13:32:17;21.6;69.0
21121;DHT22;12519;43.318;21.898;2023-04-24T13:36:58;21.3;70.0
21121;DHT22;12519;43.318;21.898;2023-04-24T13:41:34;21.3;70.0
21121;DHT22;12519;43.318;21.898;2023-04-24T13:46:12;21.0;71.0
21121;DHT22;12519;43.318;21.898;2023-04-24T13:50:48;21.0;71.0
21121;DHT22;12519;43.318;21.898;2023-04-24T13:55:26;20.8;72.0
21121;DHT22;12519;43.318;21.898;2023-04-24T14:00:09;20.8;72.0
21121;DHT22;12519;43.318;21.898;2023-04-24T14:04:49;20.6;72.0
21121;DHT22;12519;43.318;21.898;2023-04-24T14:09:27;20.6;72.0
21121;DHT22;12519;43.318;21.898;2023-04-24T14:14:05;20.6;72.0
21121;DHT22;12519;43.318;21.898;2023-04-24T14:18:43;20.6;72.0
21121;DHT22;12519;43.318;21.898;2023-04-24T14:23:20;20.6;72.0
21121;DHT22;12519;43.318;21.898;2023-04-24T14:27:57;20.5;72.0
21121;DHT22;12519;43.318;21.898;2023-04-24T14:32:34;20.5;72.0
21121;DHT22;12519;43.318;21.898;2023-04-24T14:37:11;20.4;71.0
21121;DHT22;12519;43.318;21.898;2023-04-24T14:41:48;20.4;71.0
21121;DHT22;12519;43.318;21.898;2023-04-24T14:46:24;20.4;71.0
21121;DHT22;12519;43.318;21.898;2023-04-24T14:51:01;20.4;71.0
21121;DHT22;12519;43.318;21.898;2023-04-24T14:55:38;20.3;71.0
21121;DHT22;12519;43.318;21.898;2023-04-24T15:00:17;20.3;71.0
21121;DHT22;12519;43.318;21.898;2023-04-24T15:04:55;20.2;71.0
21121;DHT22;12519;43.318;21.898;2023-04-24T15:09:31;20.2;71.0
21121;DHT22;12519;43.318;21.898;2023-04-24T15:14:07;20.4;72.0
21121;DHT22;12519;43.318;21.898;2023-04-24T15:18:44;20.4;72.0
21121;DHT22;12519;43.318;21.898;2023-04-24T15:23:21;20.4;72.0
21121;DHT22;12519;43.318;21.898;2023-04-24T15:27:58;20.5;72.0
21121;DHT22;12519;43.318;21.898;2023-04-24T15:32:35;20.5;72.0
21121;DHT22;12519;43.318;21.898;2023-04-24T15:37:12;20.7;73.0
21121;DHT22;12519;43.318;21.898;2023-04-24T15:41:49;20.7;73.0
21121;DHT22;12519;43.318;21.898;2023-04-24T15:46:25;20.9;73.0
21121;DHT22;12519;43.318;21.898;2023-04-24T15:51:02;20.9;73.0
21121;DHT22;12519;43.318;21.898;2023-04-24T15:55:39;20.5;75.0
21121;DHT22;12519;43.318;21.898;2023-04-24T16:00:18;20.5;75.0
21121;DHT22;12519;43.318;21.898;2023-04-24T16:04:55;20.1;78.0
21121;DHT22;12519;43.318;21.898;2023-04-24T16:09:31;20.1;78.0
21121;DHT22;12519;43.318;21.898;2023-04-24T16:14:08;19.9;79.0
21121;DHT22;12519;43.318;21.898;2023-04-24T16:18:44;19.9;79.0
21121;DHT22;12519;43.318;21.898;2023-04-24T16:23:20;19.9;79.0
21121;DHT22;12519;43.318;21.898;2023-04-24T16:27:57;19.7;79.0
21121;DHT22;12519;43.318;21.898;2023-04-24T16:32:35;19.7;79.0
21121;DHT22;12519;43.318;21.898;2023-04-24T16:37:12;19.5;79.0
21121;DHT22;12519;43.318;21.898;2023-04-24T16:41:49;19.5;79.0
21121;DHT22;12519;43.318;21.898;2023-04-24T16:46:26;19.4;79.0
21121;DHT22;12519;43.318;21.898;2023-04-24T16:51:03;19.4;79.0
21121;DHT22;12519;43.318;21.898;2023-04-24T16:55:41;19.2;80.0
21121;DHT22;12519;43.318;21.898;2023-04-24T17:00:19;19.2;80.0
21121;DHT22;12519;43.318;21.898;2023-04-24T17:04:56;18.9;80.0
21121;DHT22;12519;43.318;21.898;2023-04-24T17:09:33;18.9;80.0
21121;DHT22;12519;43.318;21.898;2023-04-24T17:14:09;18.8;81.0
21121;DHT22;12519;43.318;21.898;2023-04-24T17:18:46;18.8;81.0
21121;DHT22;12519;43.318;21.898;2023-04-24T17:23:24;18.8;81.0
21121;DHT22;12519;43.318;21.898;2023-04-24T17:28:00;18.7;81.0
21121;DHT22;12519;43.318;21.898;2023-04-24T17:32:37;18.7;81.0
21121;DHT22;12519;43.318;21.898;2023-04-24T17:37:14;18.7;82.0
21121;DHT22;12519;43.318;21.898;2023-04-24T17:41:51;18.7;82.0
21121;DHT22;12519;43.318;21.898;2023-04-24T17:46:27;18.7;83.0
21121;DHT22;12519;43.318;21.898;2023-04-24T17:51:04;18.7;83.0
21121;DHT22;12519;43.318;21.898;2023-04-24T17:55:41;18.5;83.0
21121;DHT22;12519;43.318;21.898;2023-04-24T18:00:18;18.5;83.0
21121;DHT22;12519;43.318;21.898;2023-04-24T18:04:56;18.4;84.0
21121;DHT22;12519;43.318;21.898;2023-04-24T18:09:32;18.4;84.0
21121;DHT22;12519;43.318;21.898;2023-04-24T18:14:08;18.4;84.0
21121;DHT22;12519;43.318;21.898;2023-04-24T18:18:45;18.2;85.0
21121;DHT22;12519;43.318;21.898;2023-04-24T18:23:21;18.2;85.0
21121;DHT22;12519;43.318;21.898;2023-04-24T18:27:58;18.1;86.0
21121;DHT22;12519;43.318;21.898;2023-04-24T18:32:35;18.1;86.0
21121;DHT22;12519;43.318;21.898;2023-04-24T18:37:11;18.0;86.0
21121;DHT22;12519;43.318;21.898;2023-04-24T18:41:47;18.0;86.0
21121;DHT22;12519;43.318;21.898;2023-04-24T18:46:24;17.9;86.0
21121;DHT22;12519;43.318;21.898;2023-04-24T18:51:00;17.9;86.0
21121;DHT22;12519;43.318;21.898;2023-04-24T18:55:37;18.0;85.0
21121;DHT22;12519;43.318;21.898;2023-04-24T19:00:14;18.0;85.0
21121;DHT22;12519;43.318;21.898;2023-04-24T19:04:51;18.0;85.0
21121;DHT22;12519;43.318;21.898;2023-04-24T19:09:28;18.0;85.0
21121;DHT22;12519;43.318;21.898;2023-04-24T19:14:05;18.0;85.0
21121;DHT22;12519;43.318;21.898;2023-04-24T19:18:42;18.0;85.0
21121;DHT22;12519;43.318;21.898;2023-04-24T19:23:19;18.0;85.0
21121;DHT22;12519;43.318;21.898;2023-04-24T19:27:56;18.0;85.0
21121;DHT22;12519;43.318;21.898;2023-04-24T19:32:33;18.0;85.0
21121;DHT22;12519;43.318;21.898;2023-04-24T19:37:10;18.0;85.0
21121;DHT22;12519;43.318;21.898;2023-04-24T19:41:47;18.0;85.0
21121;DHT22;12519;43.318;21.898;2023-04-24T19:46:24;18.0;85.0
21121;DHT22;12519;43.318;21.898;2023-04-24T19:51:02;18.0;85.0
21121;DHT22;12519;43.318;21.898;2023-04-24T19:55:39;17.9;86.0
21121;DHT22;12519;43.318;21.898;2023-04-24T20:00:16;17.9;86.0
21121;DHT22;12519;43.318;21.898;2023-04-24T20:04:53;17.8;86.0
21121;DHT22;12519;43.318;21.898;2023-04-24T20:09:29;17.8;86.0
21121;DHT22;12519;43.318;21.898;2023-04-24T20:14:06;17.8;86.0
21121;DHT22;12519;43.318;21.898;2023-04-24T20:18:42;17.8;87.0
21121;DHT22;12519;43.318;21.898;2023-04-24T20:23:19;17.8;87.0
21121;DHT22;12519;43.318;21.898;2023-04-24T20:27:56;17.7;87.0
21121;DHT22;12519;43.318;21.898;2023-04-24T20:32:32;17.7;87.0
21121;DHT22;12519;43.318;21.898;2023-04-24T20:37:09;17.8;87.0
21121;DHT22;12519;43.318;21.898;2023-04-24T20:41:45;17.8;87.0
21121;DHT22;12519;43.318;21.898;2023-04-24T20:46:22;17.8;88.0
21121;DHT22;12519;43.318;21.898;2023-04-24T20:50:58;17.8;88.0
21121;DHT22;12519;43.318;21.898;2023-04-24T20:55:35;17.7;88.0
21121;DHT22;12519;43.318;21.898;2023-04-24T21:00:14;17.7;88.0
21121;DHT22;12519;43.318;21.898;2023-04-24T21:04:51;17.6;88.0
21121;DHT22;12519;43.318;21.898;2023-04-24T21:09:28;17.6;88.0
21121;DHT22;12519;43.318;21.898;2023-04-24T21:14:05;17.6;88.0
21121;DHT22;12519;43.318;21.898;2023-04-24T21:18:41;17.6;88.0
21121;DHT22;12519;43.318;21.898;2023-04-24T21:23:18;17.6;88.0
21121;DHT22;12519;43.318;21.898;2023-04-24T21:37:11;17.1;90.0
21121;DHT22;12519;43.318;21.898;2023-04-24T21:41:48;17.1;90.0
21121;DHT22;12519;43.318;21.898;2023-04-24T21:46:26;17.1;90.0
21121;DHT22;12519;43.318;21.898;2023-04-24T21:51:03;17.1;90.0
21121;DHT22;12519;43.318;21.898;2023-04-24T21:55:40;17.6;87.0
21121;DHT22;12519;43.318;21.898;2023-04-24T22:00:18;17.6;87.0
21121;DHT22;12519;43.318;21.898;2023-04-24T22:04:56;18.0;85.0
21121;DHT22;12519;43.318;21.898;2023-04-24T22:09:33;18.0;85.0
21121;DHT22;12519;43.318;21.898;2023-04-24T22:14:10;18.0;85.0
21121;DHT22;12519;43.318;21.898;2023-04-24T22:18:48;17.2;84.0
21121;DHT22;12519;43.318;21.898;2023-04-24T22:23:26;17.2;84.0
21121;DHT22;12519;43.318;21.898;2023-04-24T22:28:03;16.4;83.0
21121;DHT22;12519;43.318;21.898;2023-04-24T22:32:40;16.4;83.0
21121;DHT22;12519;43.318;21.898;2023-04-24T22:37:16;16.2;83.0
21121;DHT22;12519;43.318;21.898;2023-04-24T22:41:53;16.2;83.0
21121;DHT22;12519;43.318;21.898;2023-04-24T22:46:30;16.0;84.0
21121;DHT22;12519;43.318;21.898;2023-04-24T22:51:07;16.0;84.0
21121;DHT22;12519;43.318;21.898;2023-04-24T22:55:44;16.0;83.0
21121;DHT22;12519;43.318;21.898;2023-04-24T23:00:21;16.0;83.0
21121;DHT22;12519;43.318;21.898;2023-04-24T23:04:57;16.0;83.0
21121;DHT22;12519;43.318;21.898;2023-04-24T23:09:34;16.0;83.0
21121;DHT22;12519;43.318;21.898;2023-04-24T23:14:10;16.0;83.0
21121;DHT22;12519;43.318;21.898;2023-04-24T23:18:47;15.9;82.0
21121;DHT22;12519;43.318;21.898;2023-04-24T23:23:24;15.9;82.0
21121;DHT22;12519;43.318;21.898;2023-04-24T23:28:00;15.8;82.0
21121;DHT22;12519;43.318;21.898;2023-04-24T23:32:37;15.8;82.0
21121;DHT22;12519;43.318;21.898;2023-04-24T23:37:13;15.8;82.0
21121;DHT22;12519;43.318;21.898;2023-04-24T23:41:50;15.8;82.0
21121;DHT22;12519;43.318;21.898;2023-04-24T23:46:27;15.7;82.0
21121;DHT22;12519;43.318;21.898;2023-04-24T23:51:05;15.7;82.0
21121;DHT22;12519;43.318;21.898;2023-04-24T23:55:41;15.6;82.0
